createdAt,value
2022-08-22T00:00:54.391Z,46.40
2022-08-22T00:02:45.526Z,45.40
2022-08-22T00:02:46.875Z,46.20
2022-08-22T00:02:56.360Z,46.10
2022-08-22T00:02:58.682Z,46.20
2022-08-22T00:03:16.331Z,45.80
2022-08-22T00:03:31.900Z,46.40
2022-08-22T00:06:09.704Z,46.40
2022-08-22T00:08:44.826Z,46.40
2022-08-22T00:11:18.990Z,46.50
2022-08-22T00:13:52.679Z,46.40
2022-08-22T00:16:37.605Z,46.30
2022-08-22T00:19:14.832Z,46.30
2022-08-22T00:21:50.160Z,46.30
2022-08-22T00:24:28.643Z,46.30
2022-08-22T00:27:03.719Z,46.30
2022-08-22T00:29:39.271Z,46.40
2022-08-22T00:32:16.950Z,46.40
2022-08-22T00:34:52.318Z,46.40
2022-08-22T00:37:27.144Z,46.30
2022-08-22T00:40:03.765Z,46.30
2022-08-22T00:43:03.551Z,46.60
2022-08-22T00:45:59.909Z,46.40
2022-08-22T00:48:57.521Z,46.40
2022-08-22T00:51:56.189Z,46.40
2022-08-22T00:54:37.559Z,46.40
2022-08-22T00:57:31.781Z,46.40
2022-08-22T01:00:11.109Z,46.40
2022-08-22T01:03:40.363Z,46.40
2022-08-22T01:06:23.688Z,46.40
2022-08-22T01:09:01.486Z,46.30
2022-08-22T01:11:44.955Z,46.40
2022-08-22T01:14:34.983Z,46.50
2022-08-22T01:17:44.353Z,46.40
2022-08-22T01:21:00.746Z,46.40
2022-08-22T01:23:56.267Z,46.20
2022-08-22T01:26:57.866Z,46.30
2022-08-22T01:29:51.663Z,46.50
2022-08-22T01:32:50.414Z,46.40
2022-08-22T01:35:48.980Z,46.40
2022-08-22T01:38:37.052Z,46.30
2022-08-22T01:41:48.629Z,46.40
2022-08-22T01:44:41.720Z,46.40
2022-08-22T01:47:15.838Z,46.50
2022-08-22T01:49:48.011Z,46.50
2022-08-22T01:52:30.176Z,46.40
2022-08-22T01:55:03.139Z,46.30
2022-08-22T01:57:31.453Z,46.40
2022-08-22T02:00:07.069Z,46.40
2022-08-22T02:02:58.556Z,46.30
2022-08-22T02:05:32.216Z,46.50
2022-08-22T02:08:06.775Z,46.60
2022-08-22T02:10:56.221Z,46.50
2022-08-22T02:13:37.382Z,46.40
2022-08-22T02:16:12.249Z,46.30
2022-08-22T02:18:55.900Z,46.40
2022-08-22T02:21:34.681Z,46.40
2022-08-22T02:24:16.880Z,46.40
2022-08-22T02:26:51.405Z,46.40
2022-08-22T02:29:31.898Z,46.50
2022-08-22T02:32:07.864Z,46.40
2022-08-22T02:34:40.919Z,46.50
2022-08-22T02:37:16.912Z,46.50
2022-08-22T02:39:54.679Z,46.50
2022-08-22T02:42:29.803Z,46.50
2022-08-22T02:45:05.017Z,46.40
2022-08-22T02:47:40.197Z,46.40
2022-08-22T02:50:19.140Z,46.30
2022-08-22T02:52:57.468Z,46.30
2022-08-22T02:55:41.970Z,46.40
2022-08-22T02:58:21.031Z,46.30
2022-08-22T03:00:52.615Z,46.50
2022-08-22T03:03:26.331Z,46.50
2022-08-22T03:06:01.893Z,46.50
2022-08-22T03:08:33.474Z,46.40
2022-08-22T03:11:16.883Z,46.40
2022-08-22T03:13:57.094Z,46.50
2022-08-22T03:16:32.395Z,46.40
2022-08-22T03:19:06.995Z,46.40
2022-08-22T03:21:46.702Z,46.40
2022-08-22T03:24:21.401Z,47.70
2022-08-22T03:26:54.146Z,46.40
2022-08-22T03:29:29.102Z,46.40
2022-08-22T03:32:14.578Z,46.40
2022-08-22T03:35:00.365Z,46.40
2022-08-22T03:37:39.179Z,46.50
2022-08-22T03:40:22.267Z,46.40
2022-08-22T03:43:16.131Z,46.60
2022-08-22T03:46:38.318Z,46.50
2022-08-22T03:49:55.647Z,46.50
2022-08-22T03:53:13.789Z,46.60
2022-08-22T03:56:40.860Z,46.60
2022-08-22T03:59:42.600Z,46.60
2022-08-22T04:02:42.018Z,46.50
2022-08-22T04:05:50.407Z,46.60
2022-08-22T04:08:49.118Z,46.50
2022-08-22T04:11:51.160Z,46.60
2022-08-22T04:14:34.257Z,46.60
2022-08-22T04:17:41.938Z,46.70
2022-08-22T04:20:32.796Z,46.60
2022-08-22T04:23:27.904Z,46.60
2022-08-22T04:26:02.073Z,46.50
2022-08-22T04:28:44.860Z,46.60
2022-08-22T04:31:15.136Z,46.70
2022-08-22T04:33:49.939Z,46.70
2022-08-22T04:36:24.808Z,46.80
2022-08-22T04:38:59.587Z,46.80
2022-08-22T04:41:46.730Z,46.70
2022-08-22T04:44:18.771Z,46.70
2022-08-22T04:46:53.840Z,46.70
2022-08-22T04:49:41.116Z,46.70
2022-08-22T04:52:16.849Z,46.70
2022-08-22T04:54:58.020Z,46.70
2022-08-22T04:57:34.040Z,46.70
2022-08-22T05:00:06.242Z,46.60
2022-08-22T05:02:38.198Z,46.70
2022-08-22T05:05:14.043Z,46.70
2022-08-22T05:07:47.620Z,46.70
2022-08-22T05:10:20.474Z,46.80
2022-08-22T05:12:54.403Z,46.90
2022-08-22T05:15:27.301Z,46.80
2022-08-22T05:18:00.038Z,46.70
2022-08-22T05:20:31.294Z,46.80
2022-08-22T05:23:17.601Z,46.80
2022-08-22T05:25:49.924Z,46.90
2022-08-22T05:28:26.648Z,46.80
2022-08-22T05:30:55.739Z,46.90
2022-08-22T05:33:28.086Z,47.00
2022-08-22T05:36:04.728Z,46.90
2022-08-22T05:38:36.786Z,46.90
2022-08-22T05:41:10.113Z,46.90
2022-08-22T05:43:41.745Z,46.80
2022-08-22T05:46:17.676Z,46.90
2022-08-22T05:48:55.498Z,46.80
2022-08-22T05:51:29.448Z,46.80
2022-08-22T05:54:09.631Z,46.90
2022-08-22T05:56:43.797Z,47.00
2022-08-22T05:59:21.909Z,46.80
2022-08-22T06:02:02.136Z,46.90
2022-08-22T06:04:36.733Z,46.90
2022-08-22T06:07:12.950Z,46.80
2022-08-22T06:10:16.379Z,46.90
2022-08-22T06:12:54.104Z,46.80
2022-08-22T06:15:28.951Z,46.90
2022-08-22T06:18:02.208Z,46.80
2022-08-22T06:20:37.686Z,46.90
2022-08-22T06:23:10.160Z,47.00
2022-08-22T06:25:41.566Z,46.90
2022-08-22T06:28:13.595Z,46.90
2022-08-22T06:30:45.560Z,47.00
2022-08-22T06:33:19.666Z,46.90
2022-08-22T06:36:09.800Z,46.80
2022-08-22T06:38:54.947Z,47.00
2022-08-22T06:41:27.383Z,47.00
2022-08-22T06:43:57.529Z,47.00
2022-08-22T06:46:29.869Z,46.80
2022-08-22T06:49:00.952Z,46.90
2022-08-22T06:51:30.621Z,47.00
2022-08-22T06:54:03.469Z,46.90
2022-08-22T06:56:36.646Z,47.00
2022-08-22T06:59:09.945Z,47.00
2022-08-22T07:01:45.903Z,47.00
2022-08-22T07:04:14.824Z,47.00
2022-08-22T07:06:45.526Z,47.00
2022-08-22T07:09:24.362Z,47.20
2022-08-22T07:11:54.466Z,47.40
2022-08-22T07:14:29.735Z,47.20
2022-08-22T07:17:01.024Z,47.20
2022-08-22T07:19:32.830Z,47.20
2022-08-22T07:22:12.805Z,47.40
2022-08-22T07:24:49.092Z,47.20
2022-08-22T07:27:29.131Z,47.40
2022-08-22T07:30:06.875Z,47.30
2022-08-22T07:32:53.635Z,47.20
2022-08-22T07:35:26.016Z,47.30
2022-08-22T07:38:05.105Z,47.30
2022-08-22T07:40:40.645Z,47.40
2022-08-22T07:43:25.009Z,47.30
2022-08-22T07:45:56.471Z,47.30
2022-08-22T07:48:30.827Z,48.60
2022-08-22T07:51:08.008Z,47.40
2022-08-22T07:53:41.651Z,47.40
2022-08-22T07:56:17.750Z,47.30
2022-08-22T07:58:49.758Z,47.40
2022-08-22T08:01:21.278Z,47.60
2022-08-22T08:03:57.178Z,47.50
2022-08-22T08:06:27.574Z,47.60
2022-08-22T08:08:57.992Z,47.70
2022-08-22T08:11:31.044Z,47.80
2022-08-22T08:14:02.488Z,47.60
2022-08-22T08:16:41.194Z,47.70
2022-08-22T08:19:11.537Z,47.80
2022-08-22T08:21:43.438Z,47.90
2022-08-22T08:24:17.086Z,47.90
2022-08-22T08:27:06.314Z,48.00
2022-08-22T08:29:36.317Z,47.90
2022-08-22T08:32:09.638Z,47.90
2022-08-22T08:34:39.522Z,47.70
2022-08-22T08:37:16.396Z,47.60
2022-08-22T08:39:50.793Z,47.50
2022-08-22T08:43:06.046Z,47.50
2022-08-22T08:46:07.932Z,47.30
2022-08-22T08:49:06.383Z,47.20
2022-08-22T08:52:08.154Z,47.10
2022-08-22T08:54:55.679Z,47.20
2022-08-22T08:57:36.427Z,47.10
2022-08-22T09:00:12.273Z,47.00
2022-08-22T09:02:58.826Z,47.00
2022-08-22T09:05:59.105Z,47.10
2022-08-22T09:08:55.649Z,46.90
2022-08-22T09:11:57.942Z,47.00
2022-08-22T09:14:53.805Z,47.00
2022-08-22T09:17:40.823Z,47.10
2022-08-22T09:20:31.013Z,47.00
2022-08-22T09:23:37.264Z,46.90
2022-08-22T09:26:14.516Z,46.80
2022-08-22T09:28:53.589Z,46.80
2022-08-22T09:31:47.913Z,46.80
2022-08-22T09:34:34.838Z,48.00
2022-08-22T09:37:14.396Z,46.80
2022-08-22T09:39:55.428Z,47.00
2022-08-22T09:42:31.923Z,46.80
2022-08-22T09:45:26.863Z,48.00
2022-08-22T09:48:07.679Z,46.70
2022-08-22T09:50:52.694Z,46.70
2022-08-22T09:53:45.331Z,46.70
2022-08-22T09:56:21.599Z,46.40
2022-08-22T09:59:03.712Z,46.40
2022-08-22T10:01:42.389Z,46.20
2022-08-22T10:04:36.819Z,46.20
2022-08-22T10:07:36.484Z,46.00
2022-08-22T10:10:21.340Z,46.30
2022-08-22T10:13:00.698Z,46.20
2022-08-22T10:15:40.075Z,46.20
2022-08-22T10:18:26.160Z,45.90
2022-08-22T10:21:05.562Z,46.10
2022-08-22T10:23:43.390Z,45.90
2022-08-22T10:26:30.281Z,45.70
2022-08-22T10:29:08.964Z,45.80
2022-08-22T10:31:58.424Z,45.90
2022-08-22T10:34:32.016Z,45.80
2022-08-22T10:37:11.861Z,45.90
2022-08-22T10:39:47.789Z,45.80
2022-08-22T10:42:28.217Z,45.80
2022-08-22T10:45:24.074Z,45.60
2022-08-22T10:48:25.649Z,45.60
2022-08-22T10:51:01.721Z,45.70
2022-08-22T10:54:02.910Z,45.50
2022-08-22T10:56:39.093Z,45.60
2022-08-22T10:59:22.913Z,45.60
2022-08-22T11:02:09.887Z,45.60
2022-08-22T11:04:57.805Z,45.70
2022-08-22T11:07:48.768Z,45.50
2022-08-22T11:10:28.927Z,45.60
2022-08-22T11:13:13.683Z,45.40
2022-08-22T11:16:00.083Z,45.50
2022-08-22T11:19:15.135Z,45.50
2022-08-22T11:21:57.416Z,45.60
2022-08-22T11:24:59.398Z,45.50
2022-08-22T11:27:41.002Z,45.70
2022-08-22T11:30:18.505Z,45.60
2022-08-22T11:33:13.749Z,45.70
2022-08-22T11:35:46.261Z,45.70
2022-08-22T11:38:32.498Z,45.80
2022-08-22T11:41:06.569Z,45.60
2022-08-22T11:43:48.263Z,45.70
2022-08-22T11:46:21.941Z,45.70
2022-08-22T11:49:26.861Z,45.70
2022-08-22T11:52:13.520Z,45.70
2022-08-22T11:55:07.114Z,45.50
2022-08-22T11:57:39.412Z,45.70
2022-08-22T12:00:35.478Z,45.60
2022-08-22T12:03:23.313Z,45.60
2022-08-22T12:05:56.026Z,45.40
2022-08-22T12:08:46.330Z,45.40
2022-08-22T12:11:23.669Z,45.50
2022-08-22T12:14:05.160Z,45.40
2022-08-22T12:16:44.997Z,45.50
2022-08-22T12:19:23.138Z,45.40
2022-08-22T12:22:28.894Z,45.40
2022-08-22T12:25:09.683Z,45.40
2022-08-22T12:27:57.578Z,45.10
2022-08-22T12:30:33.671Z,45.10
2022-08-22T12:33:33.066Z,45.00
2022-08-22T12:36:25.922Z,45.20
2022-08-22T12:39:18.249Z,45.00
2022-08-22T12:42:14.488Z,45.10
2022-08-22T12:45:07.910Z,44.50
2022-08-22T12:47:48.047Z,45.00
2022-08-22T12:50:36.653Z,44.90
2022-08-22T12:53:50.454Z,44.90
2022-08-22T12:56:32.768Z,46.10
2022-08-22T12:59:17.730Z,44.80
2022-08-22T13:01:49.179Z,44.80
2022-08-22T13:04:33.173Z,44.80
2022-08-22T13:07:10.797Z,44.80
2022-08-22T13:09:47.630Z,44.70
2022-08-22T13:12:25.847Z,44.70
2022-08-22T13:15:00.627Z,44.80
2022-08-22T13:17:30.085Z,44.80
2022-08-22T13:20:08.722Z,44.80
2022-08-22T13:22:41.602Z,44.80
2022-08-22T13:25:25.500Z,44.70
2022-08-22T13:27:59.126Z,44.80
2022-08-22T13:30:33.422Z,44.80
2022-08-22T13:33:09.837Z,44.80
2022-08-22T13:35:44.812Z,44.50
2022-08-22T13:38:25.728Z,44.50
2022-08-22T13:40:58.380Z,44.60
2022-08-22T13:43:30.808Z,44.50
2022-08-22T13:46:02.482Z,44.50
2022-08-22T13:48:46.768Z,44.50
2022-08-22T13:51:23.324Z,44.40
2022-08-22T13:54:01.049Z,44.40
2022-08-22T13:56:47.125Z,44.30
2022-08-22T13:59:47.133Z,44.30
2022-08-22T14:02:18.314Z,44.40
2022-08-22T14:04:49.235Z,44.50
2022-08-22T14:07:39.851Z,44.40
2022-08-22T14:10:14.865Z,44.30
2022-08-22T14:13:07.366Z,44.30
2022-08-22T14:15:44.920Z,44.20
2022-08-22T14:18:18.694Z,45.40
2022-08-22T14:20:49.513Z,44.20
2022-08-22T14:23:27.004Z,44.20
2022-08-22T14:25:57.245Z,44.00
2022-08-22T14:28:30.519Z,43.90
2022-08-22T14:31:03.370Z,43.90
2022-08-22T14:33:36.089Z,43.80
2022-08-22T14:36:17.218Z,43.70
2022-08-22T14:38:51.668Z,43.80
2022-08-22T14:41:56.362Z,43.80
2022-08-22T14:44:26.590Z,43.50
2022-08-22T14:47:00.156Z,43.40
2022-08-22T14:49:48.842Z,43.60
2022-08-22T14:52:30.699Z,43.70
2022-08-22T14:55:14.638Z,43.70
2022-08-22T14:57:48.396Z,43.70
2022-08-22T15:00:33.441Z,43.50
2022-08-22T15:03:21.626Z,43.60
2022-08-22T15:05:52.732Z,43.60
2022-08-22T15:08:24.557Z,43.50
2022-08-22T15:11:20.092Z,43.50
2022-08-22T15:13:56.442Z,43.70
2022-08-22T15:16:33.103Z,43.70
2022-08-22T15:19:03.082Z,43.60
2022-08-22T15:21:36.985Z,43.60
2022-08-22T15:24:15.184Z,43.60
2022-08-22T15:26:51.327Z,43.30
2022-08-22T15:29:23.450Z,43.60
2022-08-22T15:31:55.845Z,43.70
2022-08-22T15:34:30.903Z,43.70
2022-08-22T15:37:08.503Z,43.60
2022-08-22T15:40:00.658Z,43.60
2022-08-22T15:42:34.295Z,43.50
2022-08-22T15:45:03.433Z,43.40
2022-08-22T15:47:39.967Z,43.50
2022-08-22T15:50:14.753Z,43.50
2022-08-22T15:53:07.809Z,43.40
2022-08-22T15:55:37.063Z,43.30
2022-08-22T15:58:09.947Z,43.30
2022-08-22T16:00:44.905Z,43.20
2022-08-22T16:03:26.383Z,42.90
2022-08-22T16:05:58.814Z,43.00
2022-08-22T16:08:32.887Z,43.10
2022-08-22T16:11:27.534Z,43.20
2022-08-22T16:14:22.505Z,43.20
2022-08-22T16:16:59.967Z,43.20
2022-08-22T16:19:32.359Z,43.20
2022-08-22T16:22:18.661Z,43.20
2022-08-22T16:25:06.797Z,43.20
2022-08-22T16:27:52.563Z,43.10
2022-08-22T16:30:35.788Z,42.90
2022-08-22T16:33:06.995Z,43.10
2022-08-22T16:36:23.618Z,43.10
2022-08-22T16:38:56.512Z,43.00
2022-08-22T16:41:29.990Z,43.00
2022-08-22T16:44:21.534Z,43.10
2022-08-22T16:46:53.067Z,43.10
2022-08-22T16:49:28.871Z,43.00
2022-08-22T16:52:34.796Z,42.90
2022-08-22T16:55:07.316Z,43.00
2022-08-22T16:58:05.023Z,43.00
2022-08-22T17:00:43.017Z,43.00
2022-08-22T17:03:21.811Z,42.90
2022-08-22T17:06:02.757Z,43.00
2022-08-22T17:08:50.486Z,42.90
2022-08-22T17:11:31.275Z,42.70
2022-08-22T17:14:18.984Z,42.70
2022-08-22T17:17:02.652Z,42.60
2022-08-22T17:19:46.960Z,42.40
2022-08-22T17:22:29.188Z,42.50
2022-08-22T17:25:16.754Z,43.80
2022-08-22T17:27:53.692Z,42.50
2022-08-22T17:30:29.746Z,42.70
2022-08-22T17:33:17.117Z,42.60
2022-08-22T17:35:57.608Z,42.70
2022-08-22T17:38:36.348Z,42.70
2022-08-22T17:41:14.193Z,42.90
2022-08-22T17:43:56.905Z,42.80
2022-08-22T17:46:35.431Z,43.80
2022-08-22T17:49:15.376Z,43.90
2022-08-22T17:51:49.307Z,42.20
2022-08-22T17:54:29.621Z,42.00
2022-08-22T17:57:05.900Z,42.20
2022-08-22T17:59:46.421Z,42.20
2022-08-22T18:02:20.153Z,42.40
2022-08-22T18:04:59.178Z,42.40
2022-08-22T18:07:54.905Z,42.60
2022-08-22T18:10:38.388Z,42.70
2022-08-22T18:13:13.302Z,42.70
2022-08-22T18:15:50.018Z,42.50
2022-08-22T18:18:31.170Z,42.60
2022-08-22T18:21:05.413Z,42.80
2022-08-22T18:23:40.605Z,42.80
2022-08-22T18:26:25.644Z,42.90
2022-08-22T18:29:01.227Z,42.80
2022-08-22T18:31:41.891Z,42.90
2022-08-22T18:34:22.185Z,42.90
2022-08-22T18:36:57.874Z,43.00
2022-08-22T18:39:32.558Z,43.10
2022-08-22T18:42:08.109Z,43.20
2022-08-22T18:44:40.090Z,43.20
2022-08-22T18:47:17.787Z,43.20
2022-08-22T18:49:54.489Z,43.10
2022-08-22T18:52:40.947Z,43.10
2022-08-22T18:55:32.428Z,43.20
2022-08-22T18:58:29.656Z,43.10
2022-08-22T19:01:11.012Z,43.20
2022-08-22T19:04:10.540Z,43.00
2022-08-22T19:07:05.431Z,42.90
2022-08-22T19:10:12.599Z,42.90
2022-08-22T19:13:06.433Z,43.00
2022-08-22T19:15:50.250Z,43.20
2022-08-22T19:18:36.788Z,44.40
2022-08-22T19:21:38.227Z,43.20
2022-08-22T19:24:08.755Z,43.20
2022-08-22T19:26:43.335Z,43.00
2022-08-22T19:29:56.328Z,43.20
2022-08-22T19:32:59.087Z,43.20
2022-08-22T19:35:30.905Z,42.70
2022-08-22T19:38:02.947Z,42.80
2022-08-22T19:40:55.907Z,42.80
2022-08-22T19:43:37.896Z,42.70
2022-08-22T19:46:09.412Z,42.70
2022-08-22T19:48:47.540Z,42.70
2022-08-22T19:51:26.584Z,42.80
2022-08-22T19:54:17.065Z,42.90
2022-08-22T19:57:07.284Z,42.90
2022-08-22T19:59:51.592Z,42.80
2022-08-22T20:02:35.634Z,42.80
2022-08-22T20:05:24.056Z,42.80
2022-08-22T20:08:12.517Z,42.80
2022-08-22T20:10:52.923Z,42.80
2022-08-22T20:13:23.828Z,42.80
2022-08-22T20:16:13.625Z,42.80
2022-08-22T20:19:15.042Z,42.80
2022-08-22T20:21:53.647Z,43.00
2022-08-22T20:24:27.330Z,43.00
2022-08-22T20:27:16.000Z,42.90
2022-08-22T20:29:50.857Z,42.90
2022-08-22T20:32:23.041Z,42.90
2022-08-22T20:34:57.080Z,42.90
2022-08-22T20:37:45.353Z,43.10
2022-08-22T20:40:56.632Z,43.10
2022-08-22T20:43:23.901Z,43.10
2022-08-22T20:46:04.276Z,43.00
2022-08-22T20:48:37.581Z,43.00
2022-08-22T20:51:07.664Z,43.10
2022-08-22T20:53:37.322Z,43.10
2022-08-22T20:56:08.129Z,43.10
2022-08-22T20:58:43.873Z,43.10
2022-08-22T21:01:13.357Z,43.20
2022-08-22T21:03:45.184Z,43.20
2022-08-22T21:06:15.988Z,43.20
2022-08-22T21:08:46.021Z,43.10
2022-08-22T21:11:40.241Z,43.20
2022-08-22T21:14:25.292Z,43.20
2022-08-22T21:16:54.283Z,43.20
2022-08-22T21:19:28.271Z,43.30
2022-08-22T21:22:12.477Z,43.20
2022-08-22T21:24:41.062Z,43.20
2022-08-22T21:27:09.960Z,43.30
2022-08-22T21:29:47.345Z,43.40
2022-08-22T21:32:26.585Z,43.30
2022-08-22T21:34:55.529Z,43.40
2022-08-22T21:37:39.801Z,43.20
2022-08-22T21:40:15.229Z,43.40
2022-08-22T21:42:46.847Z,43.30
2022-08-22T21:45:32.663Z,43.50
2022-08-22T21:48:01.885Z,43.40
2022-08-22T21:50:38.243Z,43.50
2022-08-22T21:53:11.863Z,43.50
2022-08-22T21:55:44.580Z,43.50
2022-08-22T21:58:36.551Z,43.50
2022-08-22T22:01:29.482Z,43.50
2022-08-22T22:03:59.447Z,43.50
2022-08-22T22:06:28.682Z,43.60
2022-08-22T22:08:57.306Z,43.50
2022-08-22T22:11:25.698Z,43.50
2022-08-22T22:13:54.730Z,43.60
2022-08-22T22:16:27.394Z,43.60
2022-08-22T22:18:57.390Z,43.70
2022-08-22T22:21:25.761Z,43.50
2022-08-22T22:23:54.447Z,43.70
2022-08-22T22:26:28.731Z,43.80
2022-08-22T22:28:58.662Z,43.70
2022-08-22T22:31:27.242Z,43.70
2022-08-22T22:33:56.991Z,43.60
2022-08-22T22:36:27.626Z,43.70
2022-08-22T22:38:56.245Z,43.70
2022-08-22T22:41:25.779Z,43.60
2022-08-22T22:43:55.229Z,43.70
2022-08-22T22:46:24.101Z,43.70
2022-08-22T22:48:52.432Z,43.80
2022-08-22T22:51:22.248Z,43.70
2022-08-22T22:53:51.053Z,43.70
2022-08-22T22:56:23.226Z,43.80
2022-08-22T22:59:00.968Z,43.80
2022-08-22T23:02:01.374Z,43.80
2022-08-22T23:04:30.823Z,43.90
2022-08-22T23:07:00.903Z,43.70
2022-08-22T23:09:38.528Z,43.80
2022-08-22T23:12:14.029Z,43.70
2022-08-22T23:14:42.752Z,43.70
2022-08-22T23:17:11.476Z,43.70
2022-08-22T23:19:40.270Z,43.80
2022-08-22T23:22:10.599Z,43.80
2022-08-22T23:24:40.975Z,43.80
2022-08-22T23:27:10.960Z,43.90
2022-08-22T23:29:41.091Z,43.80
2022-08-22T23:32:11.178Z,43.90
2022-08-22T23:34:43.842Z,44.00
2022-08-22T23:37:16.090Z,43.90
2022-08-22T23:39:44.690Z,44.00
2022-08-22T23:42:14.218Z,43.90
2022-08-22T23:44:45.232Z,43.90
2022-08-22T23:47:14.962Z,43.90
2022-08-22T23:49:44.468Z,44.00
2022-08-22T23:52:14.771Z,43.90
2022-08-22T23:54:43.199Z,44.00
2022-08-22T23:57:12.706Z,44.00
2022-08-22T23:59:47.849Z,44.00
